TimeHST,TemperatureF,Dew PointF,Humidity,Sea Level PressureIn,VisibilityMPH,Wind Direction,Wind SpeedMPH,Gust SpeedMPH,PrecipitationIn,Events,Conditions,WindDirDegrees,DateUTC
12:56 AM,73.0,62.1,68,30.01,10.0,NE,4.6,-,N/A,,Clear,50,2012-12-06 10:56:00
1:56 AM,72.0,72.0,100,30.00,10.0,ENE,4.6,-,N/A,,Clear,70,2012-12-06 11:56:00
2:56 AM,72.0,-9999,N/A,29.99,10.0,ENE,4.6,-,N/A,,Partly Cloudy,70,2012-12-06 12:56:00
3:56 AM,73.0,-9999,N/A,29.97,10.0,ENE,4.6,-,N/A,,Overcast,70,2012-12-06 13:56:00
4:56 AM,72.0,-9999,N/A,29.98,10.0,East,3.5,-,N/A,,Scattered Clouds,80,2012-12-06 14:56:00
5:56 AM,70.0,60.1,71,29.99,10.0,East,3.5,-,N/A,,Clear,100,2012-12-06 15:56:00
6:56 AM,71.1,-9999,N/A,30.00,10.0,ENE,4.6,-,N/A,,Clear,70,2012-12-06 16:56:00
7:56 AM,72.0,64.0,76,30.01,10.0,Calm,Calm,-,N/A,,Clear,0,2012-12-06 17:56:00
8:56 AM,79.0,61.0,54,30.02,10.0,Calm,Calm,-,N/A,,Clear,0,2012-12-06 18:56:00
9:56 AM,80.1,59.0,48,30.01,10.0,South,9.2,-,N/A,,Clear,190,2012-12-06 19:56:00
10:56 AM,82.0,60.1,47,29.99,10.0,SE,8.1,-,N/A,,Clear,130,2012-12-06 20:56:00
11:56 AM,80.1,60.1,50,29.97,10.0,Variable,3.5,-,N/A,,Mostly Cloudy,0,2012-12-06 21:56:00
12:06 PM,80.6,60.8,51,29.96,10.0,Calm,Calm,-,N/A,,Mostly Cloudy,0,2012-12-06 22:06:00
12:18 PM,80.6,66.2,61,29.95,10.0,Variable,5.8,-,N/A,,Overcast,0,2012-12-06 22:18:00
12:54 PM,80.6,62.6,54,29.93,10.0,North,9.2,-,N/A,,Overcast,360,2012-12-06 22:54:00
12:56 PM,79.0,62.1,56,29.94,10.0,North,6.9,-,N/A,,Overcast,360,2012-12-06 22:56:00
1:29 PM,78.8,60.8,54,29.91,10.0,NW,6.9,-,N/A,,Mostly Cloudy,320,2012-12-06 23:29:00
1:56 PM,80.1,60.1,50,29.91,10.0,NNW,8.1,-,N/A,,Mostly Cloudy,330,2012-12-06 23:56:00
2:11 PM,80.6,59.0,48,29.90,10.0,NW,6.9,-,N/A,,Mostly Cloudy,310,2012-12-07 00:11:00
2:19 PM,80.6,59.0,48,29.90,10.0,WNW,5.8,-,N/A,,Scattered Clouds,290,2012-12-07 00:19:00
2:56 PM,81.0,57.9,45,29.89,10.0,South,11.5,-,N/A,,Partly Cloudy,190,2012-12-07 00:56:00
3:56 PM,81.0,78.1,91,29.87,10.0,SSE,8.1,-,N/A,,Overcast,150,2012-12-07 01:56:00
4:56 PM,79.0,73.0,82,29.87,10.0,SSE,10.4,20.7,N/A,,Partly Cloudy,150,2012-12-07 02:56:00
5:56 PM,77.0,72.0,84,29.88,10.0,SE,12.7,-,N/A,,Mostly Cloudy,140,2012-12-07 03:56:00
6:56 PM,75.0,66.0,73,29.91,10.0,SSE,5.8,-,N/A,,Clear,150,2012-12-07 04:56:00
7:56 PM,75.0,61.0,62,29.92,10.0,ESE,4.6,-,N/A,,Partly Cloudy,120,2012-12-07 05:56:00
8:56 PM,75.9,63.0,64,29.94,10.0,SE,8.1,-,N/A,,Clear,130,2012-12-07 06:56:00
9:56 PM,75.0,64.0,69,29.94,10.0,SE,8.1,-,N/A,,Clear,140,2012-12-07 07:56:00
10:56 PM,75.0,64.9,71,29.93,10.0,SSE,4.6,-,N/A,,Clear,160,2012-12-07 08:56:00
11:56 PM,75.0,59.0,57,29.93,10.0,SSE,9.2,-,N/A,,Overcast,150,2012-12-07 09:56:00